Rogersville, Missouri
Current Conditions -  °F | °C
As of 1:52 PM on Wednesday 28 Jan 2015 (Local Time) from KSGF Reporting Station
Clear Clear  
Wind Chill: 62°   Ceiling: Unl
Heat Index: 62°   Visibility: NA
Dew Point: 36°   Wind: 23mph
Humidity: 38%   Direction: 160°SSE
Pressure: 29.92"   Gusts: 30mph
Location:  37.12°N, 93.06°W
Report Text: KSGF 281952Z 16020G26KT CLR 17/02 A2992 RMK AO2 PK WND 18027/1928 SLP130 T01670022 $
Loading
Personal Weather Stations






























Interactive Weather Map New forecast layout! Learn more

10-Day Weather Forecast

Advertisements
Track Severe Weather on mobile